FZAA/FIH METAR and TAF weather

Enter ICAO airport designator
Station Type Date Time Source
FZAA METAR 2019/10/18 10:00 UTC NOAA

FZAA 181000Z 24010KT 8000 SCT018 BKN080 28/20 Q1014 NOSIG


Station Type Date Time Source
FZAA Decoded METAR 2019/10/18 10:00 UTC NOAA

Kinshasa / N'Djili, Congo, Democratic Republic of the (FZAA) 04-23S 015-26E 312M
Oct 18, 2019 - 06:00 AM EDT / 2019.10.18 1000 UTC
Wind: from the WSW (240 degrees) at 12 MPH (10 KT):0
Visibility: 4 mile(s):0
Sky conditions: mostly cloudy
Temperature: 82 F (28 C)
Dew Point: 68 F (20 C)
Relative Humidity: 61%
Pressure (altimeter): 29.94 in. Hg (1014 hPa)
ob: FZAA 181000Z 24010KT 8000 SCT018 BKN080 28/20 Q1014 NOSIG
cycle: 10

Station Type Date Time Source
FZAA TAF 2019/10/18 12:57 UTC NOAA

TAF TAF FZAA 181100Z 1812/1918 30010KT 8000 SCT024
BECMG 1813/1815 SCT022 FEW030CB PROB30
TEMPO 1818/1821 4000 TSRA
BECMG 1823/1901 24004KT BKN016
BECMG 1910/1912 32012KT FEW024 FEW030CB

Example: see airport list